Time;durP1;ratioP1;P1;durP2;ratioP2;P2;SDS_P1;SDS_P2;PMS_P1;PMS_P2;Temp;Humidity;BMP_temperature;BMP_pressure;BME280_temperature;BME280_humidity;BME280_pressure;Samples;Min_cycle;Max_cycle;Signal;HPM_P1;HPM_P2
2024/02/03 00:01:07;;;;;;;80.80;31.98;;;6.40;70.60;;;1.56;100.00;96942.81;4958804;28;20370;-56
2024/02/03 00:03:33;;;;;;;42.63;14.90;;;6.50;70.80;;;1.49;100.00;96944.50;4951319;28;20042;-60
2024/02/03 00:05:59;;;;;;;35.58;14.30;;;6.50;70.60;;;1.40;100.00;96932.41;4952674;28;20036;-54
2024/02/03 00:08:25;;;;;;;37.22;15.25;;;6.50;70.40;;;1.32;100.00;96937.75;4951474;28;20034;-57
2024/02/03 00:10:51;;;;;;;33.83;15.20;;;6.50;70.20;;;1.28;100.00;96933.81;4958469;28;20036;-54
2024/02/03 00:13:17;;;;;;;44.00;19.38;;;6.40;70.00;;;1.32;100.00;96930.69;4958166;28;20026;-52
2024/02/03 00:15:42;;;;;;;43.28;20.02;;;6.30;70.00;;;1.36;100.00;96933.78;4947353;28;20440;-52
2024/02/03 00:18:08;;;;;;;64.97;21.60;;;6.30;70.20;;;1.36;100.00;96924.06;4955957;28;20032;-52
2024/02/03 00:20:34;;;;;;;51.65;23.23;;;6.30;70.30;;;1.42;100.00;96927.81;4947452;28;20097;-54
2024/02/03 00:23:00;;;;;;;46.75;20.08;;;6.30;70.50;;;1.45;100.00;96916.97;4965231;28;20042;-53
2024/02/03 00:25:26;;;;;;;42.28;18.75;;;6.30;70.50;;;1.50;100.00;96922.50;4950181;28;20026;-57
2024/02/03 00:27:52;;;;;;;32.42;15.40;;;6.30;70.60;;;1.53;100.00;96923.97;4951364;28;20030;-57
2024/02/03 00:30:18;;;;;;;36.22;17.08;;;6.30;70.70;;;1.56;100.00;96934.13;4948610;28;20106;-57
2024/02/03 00:32:44;;;;;;;28.90;13.40;;;6.30;70.70;;;1.55;100.00;96933.31;4954459;28;20030;-54
2024/02/03 00:35:10;;;;;;;25.27;11.27;;;6.30;70.70;;;1.54;100.00;96930.88;4959203;28;20037;-55
2024/02/03 00:37:36;;;;;;;20.88;10.55;;;6.30;70.70;;;1.54;100.00;96928.25;4954277;28;20106;-56
2024/02/03 00:40:04;;;;;;;30.13;12.95;;;6.30;70.70;;;1.51;100.00;96926.78;4946503;28;20022;-57
2024/02/03 00:42:30;;;;;;;26.13;13.23;;;6.30;70.70;;;1.50;100.00;96922.50;4953622;28;20045;-55
2024/02/03 00:44:56;;;;;;;23.25;11.43;;;6.30;70.70;;;1.51;100.00;96916.28;4946150;28;20113;-54
2024/02/03 00:47:22;;;;;;;26.63;11.68;;;6.40;70.70;;;1.52;100.00;96914.47;4958961;28;20109;-58
2024/02/03 00:49:48;;;;;;;22.88;10.25;;;6.40;70.80;;;1.51;100.00;96910.22;4954961;28;20098;-52
2024/02/03 00:52:14;;;;;;;20.92;9.80;;;6.40;70.80;;;1.49;100.00;96905.13;4957302;28;20053;-52
2024/02/03 00:54:39;;;;;;;18.73;9.75;;;6.30;70.70;;;1.45;100.00;96901.22;4952505;28;20026;-52
2024/02/03 00:57:07;;;;;;;16.05;8.10;;;6.30;70.60;;;1.46;100.00;96909.91;4949978;28;20092;-56
2024/02/03 00:59:33;;;;;;;15.82;8.23;;;6.30;70.60;;;1.41;100.00;96901.72;4971596;23;20393;-54
2024/02/03 01:01:59;;;;;;;12.38;6.70;;;6.30;70.60;;;1.36;100.00;96904.88;4968006;28;20030;-51
2024/02/03 01:04:25;;;;;;;13.55;6.97;;;6.30;70.40;;;1.33;100.00;96898.16;4954172;28;20034;-55
2024/02/03 01:06:54;;;;;;;13.52;7.88;;;6.30;70.40;;;1.33;100.00;96900.78;4963178;28;20445;-55
2024/02/03 01:09:20;;;;;;;16.00;7.30;;;6.30;70.70;;;1.37;100.00;96894.19;4962937;28;20027;-51
2024/02/03 01:11:45;;;;;;;12.20;6.38;;;6.30;70.80;;;1.36;100.00;96903.06;4956415;28;20053;-52
2024/02/03 01:14:11;;;;;;;12.13;5.90;;;6.30;70.80;;;1.33;100.00;96897.34;4953129;28;20061;-53
2024/02/03 01:16:37;;;;;;;11.32;6.25;;;6.30;70.70;;;1.29;100.00;96896.88;4951752;28;20030;-53
2024/02/03 01:19:05;;;;;;;13.43;6.43;;;6.30;70.70;;;1.26;100.00;96899.88;4954755;28;20034;-50
2024/02/03 01:21:31;;;;;;;11.15;6.88;;;6.30;70.50;;;1.23;100.00;96892.34;4958451;28;20551;-54
2024/02/03 01:23:57;;;;;;;11.82;6.60;;;6.30;70.50;;;1.20;100.00;96895.31;4951508;28;20051;-56
2024/02/03 01:26:23;;;;;;;10.82;6.10;;;6.30;70.50;;;1.19;100.00;96904.16;4952250;28;20469;-56
2024/02/03 01:28:49;;;;;;;11.48;6.72;;;6.20;70.50;;;1.17;100.00;96906.16;4951988;28;20034;-53
2024/02/03 01:31:15;;;;;;;11.93;6.70;;;6.20;70.50;;;1.17;100.00;96906.16;4953695;28;20057;-51
2024/02/03 01:33:41;;;;;;;14.25;6.70;;;6.20;70.50;;;1.14;100.00;96904.69;4952310;28;20110;-53
2024/02/03 01:36:09;;;;;;;15.20;7.18;;;6.20;70.60;;;1.12;100.00;96900.59;4952633;28;20282;-50
2024/02/03 01:38:35;;;;;;;12.40;6.15;;;6.20;70.60;;;1.13;100.00;96905.69;4949815;28;20374;-50
2024/02/03 01:41:01;;;;;;;60.88;8.68;;;6.10;70.50;;;1.12;100.00;96903.22;4953851;28;20033;-52
2024/02/03 01:43:27;;;;;;;12.98;7.65;;;6.10;70.50;;;1.10;100.00;96894.72;4951353;28;20034;-52
2024/02/03 01:45:53;;;;;;;9.40;5.55;;;6.10;70.50;;;1.06;100.00;96894.22;4950255;28;20030;-55
2024/02/03 01:48:20;;;;;;;7.63;5.18;;;6.10;70.50;;;1.01;100.00;96882.63;4953198;28;20018;-52
2024/02/03 01:50:53;;;;;;;9.13;6.13;;;6.00;70.50;;;0.96;100.00;96879.69;4948619;28;20030;-54
2024/02/03 01:53:21;;;;;;;8.68;5.47;;;6.00;70.40;;;0.93;100.00;96878.22;4953448;28;20057;-54
2024/02/03 01:55:52;;;;;;;8.65;5.10;;;6.00;70.30;;;0.89;100.00;96879.56;4950656;28;20116;-52
2024/02/03 01:58:19;;;;;;;7.78;5.05;;;6.00;70.30;;;0.83;100.00;96877.63;4950217;28;20037;-54
2024/02/03 02:00:46;;;;;;;8.82;5.57;;;6.00;70.40;;;0.86;100.00;96879.91;4949592;28;20085;-52
2024/02/03 02:03:16;;;;;;;16.88;5.50;;;5.90;70.40;;;0.89;100.00;96877.75;4945540;28;20440;-53
2024/02/03 02:05:45;;;;;;;8.88;5.38;;;5.90;70.40;;;0.84;100.00;96876.63;4950721;28;20054;-51
2024/02/03 02:08:11;;;;;;;7.50;5.30;;;5.80;70.40;;;0.74;100.00;96868.97;4949022;28;20116;-50
2024/02/03 02:10:38;;;;;;;12.10;5.35;;;5.80;70.40;;;0.73;100.00;96859.47;4948949;28;20030;-50
2024/02/03 02:13:04;;;;;;;9.27;4.82;;;5.80;70.30;;;0.73;100.00;96863.91;4951086;28;20128;-50
2024/02/03 02:15:30;;;;;;;7.45;5.30;;;5.80;70.40;;;0.75;100.00;96864.53;4950289;28;20022;-57
2024/02/03 02:18:01;;;;;;;9.82;5.25;;;5.70;70.40;;;0.71;100.00;96865.88;4948859;28;20121;-53
2024/02/03 02:20:27;;;;;;;10.20;5.70;;;5.70;70.50;;;0.63;100.00;96870.19;4949227;28;20034;-50
2024/02/03 02:22:54;;;;;;;9.45;5.50;;;5.70;70.40;;;0.60;100.00;96861.84;4950609;28;20606;-53
2024/02/03 02:25:20;;;;;;;8.20;5.05;;;5.60;70.40;;;0.54;100.00;96863.34;4950906;28;20034;-52
2024/02/03 02:27:46;;;;;;;10.13;5.60;;;5.60;70.40;;;0.52;100.00;96856.63;4948356;28;20377;-54
2024/02/03 02:30:12;;;;;;;11.30;5.70;;;5.60;70.40;;;0.43;100.00;96863.69;4965209;28;20136;-54
2024/02/03 02:32:38;;;;;;;13.38;5.65;;;5.50;70.40;;;0.43;100.00;96855.84;4949852;28;20069;-51
2024/02/03 02:35:05;;;;;;;13.23;6.05;;;5.50;70.40;;;0.34;100.00;96855.03;4944820;28;20058;-55
2024/02/03 02:37:31;;;;;;;9.82;6.40;;;5.50;70.50;;;0.34;100.00;96848.97;4950554;28;20022;-54
2024/02/03 02:39:57;;;;;;;10.40;5.75;;;5.40;70.40;;;0.36;100.00;96853.06;4949133;28;20050;-49
2024/02/03 02:42:23;;;;;;;15.10;6.75;;;5.40;70.50;;;0.34;100.00;96849.78;4950784;28;20430;-50
2024/02/03 02:44:49;;;;;;;16.77;6.82;;;5.40;70.60;;;0.33;100.00;96852.59;4947046;28;20058;-53
2024/02/03 02:47:15;;;;;;;12.88;6.85;;;5.30;70.60;;;0.32;100.00;96837.88;4950575;28;20031;-50
2024/02/03 02:49:41;;;;;;;12.43;7.57;;;5.30;70.60;;;0.32;100.00;96843.09;4949147;28;20030;-55
2024/02/03 02:52:07;;;;;;;25.40;8.27;;;5.30;70.70;;;0.33;100.00;96842.94;4950317;28;20117;-53
2024/02/03 02:54:33;;;;;;;15.38;7.97;;;5.30;70.70;;;0.33;100.00;96835.06;4949262;28;20031;-51
2024/02/03 02:56:58;;;;;;;15.23;8.15;;;5.30;70.60;;;0.31;100.00;96838.84;4947573;28;20437;-52
2024/02/03 02:59:24;;;;;;;13.32;8.15;;;5.30;70.60;;;0.27;100.00;96840.16;4945505;28;20051;-52
2024/02/03 03:01:50;;;;;;;15.77;7.70;;;5.30;70.60;;;0.22;100.00;96840.69;4949020;28;20525;-54
2024/02/03 03:04:16;;;;;;;13.40;7.57;;;5.20;70.60;;;0.14;100.00;96843.31;4945347;28;20429;-50
2024/02/03 03:06:42;;;;;;;15.95;8.45;;;5.20;70.60;;;0.05;100.00;96847.75;4947919;28;20491;-51
2024/02/03 03:09:08;;;;;;;17.63;9.05;;;5.20;70.60;;;0.02;100.00;96840.22;4944113;28;20045;-50
2024/02/03 03:11:34;;;;;;;20.10;9.48;;;5.20;70.60;;;0.07;100.00;96847.59;4947064;28;20027;-55
2024/02/03 03:14:00;;;;;;;41.63;11.80;;;5.10;70.60;;;0.12;100.00;96833.00;4943617;28;20092;-50
2024/02/03 03:16:25;;;;;;;25.48;11.75;;;5.10;70.70;;;0.15;100.00;96819.56;4946247;28;20022;-50
2024/02/03 03:18:51;;;;;;;80.65;13.38;;;5.10;70.80;;;0.17;100.00;96819.41;4943167;28;20030;-51
2024/02/03 03:21:17;;;;;;;60.97;17.02;;;5.10;70.90;;;0.19;100.00;96820.06;4944598;28;20058;-54
2024/02/03 03:23:43;;;;;;;23.02;12.55;;;5.10;70.90;;;0.29;100.00;96827.72;4946421;28;20041;-52
2024/02/03 03:26:09;;;;;;;27.20;12.82;;;5.10;71.10;;;0.28;100.00;96831.31;4944487;28;20022;-50
2024/02/03 03:28:35;;;;;;;32.15;12.95;;;5.10;71.20;;;0.23;100.00;96837.06;4943954;28;20509;-52
2024/02/03 03:31:00;;;;;;;33.35;14.65;;;5.20;71.20;;;0.30;100.00;96845.06;4948619;28;20037;-50
2024/02/03 03:33:26;;;;;;;35.83;15.60;;;5.10;71.20;;;0.32;100.00;96838.69;4946096;28;20031;-51
2024/02/03 03:35:52;;;;;;;35.85;16.10;;;5.10;71.20;;;0.31;100.00;96831.78;4953282;28;20030;-54
2024/02/03 03:38:18;;;;;;;40.83;16.60;;;5.20;71.30;;;0.34;100.00;96830.63;4944400;28;20023;-54
2024/02/03 03:40:44;;;;;;;34.30;16.67;;;5.20;71.30;;;0.35;100.00;96829.66;4952301;28;20042;-51
2024/02/03 03:43:09;;;;;;;47.30;19.92;;;5.20;71.20;;;0.39;100.00;96836.19;4944857;28;20031;-51
2024/02/03 03:45:35;;;;;;;38.75;19.23;;;5.20;71.30;;;0.38;100.00;96832.75;4952735;28;20022;-54
2024/02/03 03:48:01;;;;;;;46.38;16.55;;;5.30;71.50;;;0.36;100.00;96820.81;4948235;28;20500;-50
2024/02/03 03:50:27;;;;;;;34.92;14.20;;;5.30;71.50;;;0.29;100.00;96823.28;4948320;28;20532;-51
2024/02/03 03:52:53;;;;;;;35.15;14.38;;;5.30;72.00;;;0.22;100.00;96822.34;4946488;28;20420;-53
2024/02/03 03:55:18;;;;;;;41.70;14.90;;;5.20;71.00;;;0.17;100.00;96808.91;4944717;28;20474;-52
2024/02/03 03:57:44;;;;;;;45.97;15.25;;;5.20;71.00;;;0.18;100.00;96800.06;4951177;28;20106;-50
2024/02/03 04:00:12;;;;;;;35.22;15.20;;;5.20;71.00;;;0.15;100.00;96801.22;4948037;28;20046;-54
2024/02/03 04:02:39;;;;;;;37.30;15.45;;;5.20;71.00;;;0.20;100.00;96798.09;4952224;28;20038;-55
2024/02/03 04:05:09;;;;;;;39.85;15.25;;;5.20;71.10;;;0.21;100.00;96803.16;4948295;28;20034;-51
2024/02/03 04:07:35;;;;;;;41.33;15.38;;;5.10;71.10;;;0.23;100.00;96810.88;4944732;28;20506;-59
2024/02/03 04:10:01;;;;;;;38.58;16.15;;;5.10;71.10;;;0.22;100.00;96804.81;4952016;28;20032;-50
2024/02/03 04:12:27;;;;;;;44.90;15.13;;;5.10;71.20;;;0.23;100.00;96805.63;4944623;28;20034;-52
2024/02/03 04:14:53;;;;;;;38.20;14.50;;;5.20;72.10;;;0.18;100.00;96813.97;4948451;28;20027;-54
2024/02/03 04:17:19;;;;;;;31.35;13.82;;;5.20;71.20;;;0.15;100.00;96816.13;4943727;28;20030;-50
2024/02/03 04:19:44;;;;;;;34.88;13.80;;;5.20;71.20;;;0.12;100.00;96817.28;4949362;28;20023;-55
2024/02/03 04:22:13;;;;;;;38.28;14.18;;;5.10;71.10;;;0.09;100.00;96822.03;4947406;28;20023;-51
2024/02/03 04:24:42;;;;;;;32.50;13.95;;;5.10;71.10;;;0.05;100.00;96818.94;4949094;28;20065;-50
2024/02/03 04:27:08;;;;;;;42.85;13.65;;;5.10;71.10;;;0.06;100.00;96819.75;4945180;28;20035;-53
2024/02/03 04:29:34;;;;;;;43.63;14.50;;;5.10;71.10;;;0.05;100.00;96813.69;4947694;28;20092;-53
2024/02/03 04:32:05;;;;;;;56.40;16.00;;;5.10;71.10;;;0.07;100.00;96813.53;4943955;28;20034;-50
2024/02/03 04:34:31;;;;;;;36.03;15.57;;;5.00;71.20;;;0.04;100.00;96819.94;4946814;28;20054;-53
2024/02/03 04:36:57;;;;;;;62.28;16.42;;;5.00;71.10;;;0.01;100.00;96822.06;4949051;28;20110;-50
2024/02/03 04:39:23;;;;;;;45.40;15.43;;;5.00;71.10;;;-0.01;100.00;96825.66;4950924;28;20520;-53
2024/02/03 04:41:49;;;;;;;41.30;15.88;;;5.00;71.20;;;0.00;100.00;96821.25;4946247;28;20443;-50
2024/02/03 04:44:16;;;;;;;46.75;16.45;;;5.00;71.20;;;0.02;100.00;96823.69;4951720;28;20396;-50
2024/02/03 04:46:42;;;;;;;33.00;14.55;;;5.00;71.20;;;-0.01;100.00;96825.66;4947086;28;20445;-51
2024/02/03 04:49:08;;;;;;;63.45;17.13;;;5.00;71.20;;;-0.04;100.00;96823.38;4951052;28;20038;-50
2024/02/03 04:51:33;;;;;;;36.95;15.90;;;4.90;71.10;;;-0.02;100.00;96824.03;4943691;28;20050;-50
2024/02/03 04:53:59;;;;;;;34.85;15.85;;;4.90;71.20;;;-0.08;100.00;96818.66;4950320;28;20366;-50
2024/02/03 04:56:25;;;;;;;36.17;15.50;;;4.90;71.10;;;-0.10;100.00;96815.38;4947645;28;20102;-53
2024/02/03 04:58:51;;;;;;;35.35;15.10;;;4.90;71.20;;;-0.16;100.00;96809.00;4950781;28;20416;-52
2024/02/03 05:01:17;;;;;;;34.45;14.80;;;4.90;71.10;;;-0.18;100.00;96810.97;4948509;28;20134;-52
2024/02/03 05:03:43;;;;;;;38.83;14.93;;;4.90;71.10;;;-0.18;100.00;96820.66;4946924;28;20049;-52
2024/02/03 05:06:10;;;;;;;44.58;16.17;;;4.90;71.10;;;-0.16;100.00;96826.50;4946455;28;20027;-53
2024/02/03 05:08:36;;;;;;;39.63;16.58;;;4.80;71.10;;;-0.16;100.00;96824.72;4946240;28;20379;-54
2024/02/03 05:11:02;;;;;;;54.40;17.38;;;4.90;71.20;;;-0.16;100.00;96826.50;4948862;28;20030;-50
2024/02/03 05:13:27;;;;;;;109.03;18.63;;;4.80;71.10;;;-0.18;100.00;96824.06;4946961;28;20547;-50
2024/02/03 05:15:54;;;;;;;118.65;20.00;;;4.80;71.10;;;-0.19;100.00;96819.00;4948074;28;20038;-55
2024/02/03 05:18:21;;;;;;;34.53;15.73;;;4.80;71.20;;;-0.18;100.00;96815.41;4947500;28;20384;-50
2024/02/03 05:20:49;;;;;;;39.13;17.35;;;4.80;71.20;;;-0.15;100.00;96809.84;4955069;28;20045;-52
2024/02/03 05:23:15;;;;;;;35.67;15.73;;;4.80;71.30;;;-0.11;100.00;96814.56;4956039;28;20490;-51
2024/02/03 05:25:41;;;;;;;70.65;15.80;;;4.80;71.50;;;-0.18;100.00;96813.59;4956963;28;20092;-50
2024/02/03 05:28:07;;;;;;;40.50;16.45;;;4.80;71.30;;;-0.25;100.00;96816.06;4945923;28;20026;-50
2024/02/03 05:30:33;;;;;;;39.95;15.32;;;4.80;71.30;;;-0.20;100.00;96810.31;4956059;28;20022;-52
2024/02/03 05:32:58;;;;;;;61.95;18.17;;;4.80;71.30;;;-0.18;100.00;96818.84;4954783;28;20555;-52
2024/02/03 05:35:25;;;;;;;57.15;18.88;;;4.80;71.30;;;-0.16;100.00;96821.28;4957236;28;20053;-50
2024/02/03 05:37:51;;;;;;;41.35;16.27;;;4.80;71.50;;;-0.09;100.00;96824.88;4952948;28;20173;-50
2024/02/03 05:40:17;;;;;;;43.72;17.75;;;4.80;71.60;;;-0.07;100.00;96815.03;4957568;28;20117;-50
2024/02/03 05:42:42;;;;;;;37.47;16.27;;;4.80;71.60;;;-0.01;100.00;96825.66;4952934;28;20488;-50
2024/02/03 05:45:09;;;;;;;29.38;14.10;;;4.80;71.70;;;0.02;100.00;96816.66;4956822;28;20366;-51
2024/02/03 05:47:35;;;;;;;31.55;14.23;;;4.80;71.70;;;0.01;100.00;96811.59;4954143;28;20038;-50
2024/02/03 05:50:01;;;;;;;28.05;13.77;;;4.80;71.60;;;-0.02;100.00;96826.66;4955675;28;20025;-50
2024/02/03 05:52:26;;;;;;;29.70;14.90;;;4.80;71.60;;;-0.08;100.00;96822.09;4954825;28;20035;-50
2024/02/03 05:54:52;;;;;;;24.92;12.07;;;4.90;71.60;;;-0.11;100.00;96832.91;4955316;28;20398;-53
2024/02/03 05:57:18;;;;;;;21.90;10.25;;;4.90;71.50;;;-0.13;100.00;96827.00;4953622;28;20053;-53
2024/02/03 05:59:44;;;;;;;24.88;11.43;;;4.80;71.30;;;-0.20;100.00;96826.03;4946864;28;20076;-56
2024/02/03 06:02:12;;;;;;;31.40;10.32;;;4.80;71.30;;;-0.21;100.00;96826.22;4948218;28;20034;-53
2024/02/03 06:04:42;;;;;;;23.17;9.93;;;4.80;71.30;;;-0.26;100.00;96824.91;4944453;28;20031;-53
2024/02/03 06:07:08;;;;;;;28.48;11.00;;;4.80;71.30;;;-0.25;100.00;96823.13;4950484;28;20037;-55
2024/02/03 06:09:35;;;;;;;24.67;10.55;;;4.80;71.30;;;-0.28;100.00;96823.44;4950395;28;20049;-52
2024/02/03 06:12:01;;;;;;;19.75;9.85;;;4.70;71.30;;;-0.22;100.00;96822.75;4946486;28;20104;-55
2024/02/03 06:14:27;;;;;;;22.13;9.07;;;4.70;71.40;;;-0.17;100.00;96819.66;4947244;28;20053;-51
2024/02/03 06:16:53;;;;;;;18.35;8.98;;;4.80;71.60;;;-0.11;100.00;96816.38;4959443;28;20026;-50
2024/02/03 06:19:19;;;;;;;18.45;9.43;;;4.80;72.40;;;-0.15;100.00;96818.50;4949151;28;20571;-54
2024/02/03 06:21:45;;;;;;;18.63;9.00;;;4.80;71.60;;;-0.15;100.00;96813.28;4946543;28;20449;-50
2024/02/03 06:24:11;;;;;;;16.50;8.02;;;4.80;71.60;;;-0.19;100.00;96825.03;4946934;28;20038;-50
2024/02/03 06:26:37;;;;;;;31.60;14.55;;;4.80;71.60;;;-0.19;100.00;96824.22;4945558;28;20019;-50
2024/02/03 06:29:05;;;;;;;19.50;9.30;;;4.80;71.60;;;-0.14;100.00;96828.00;4950190;28;20042;-50
2024/02/03 06:31:31;;;;;;;18.85;8.45;;;4.80;71.60;;;-0.12;100.00;96827.84;4945647;28;20019;-50
2024/02/03 06:33:57;;;;;;;16.60;7.80;;;4.80;71.60;;;-0.13;100.00;96829.63;4947552;28;20493;-50
2024/02/03 06:36:22;;;;;;;14.45;7.82;;;4.80;71.60;;;-0.15;100.00;96825.56;4959115;28;20022;-52
2024/02/03 06:38:48;;;;;;;15.40;7.90;;;4.80;71.60;;;-0.21;100.00;96823.59;4949174;28;20050;-54
2024/02/03 06:41:16;;;;;;;16.80;7.88;;;4.80;71.50;;;-0.21;100.00;96829.66;4948322;28;20168;-53
2024/02/03 06:43:42;;;;;;;14.00;7.55;;;4.80;71.40;;;-0.18;100.00;96826.69;4948204;28;20047;-52
2024/02/03 06:46:08;;;;;;;15.48;7.22;;;4.80;71.50;;;-0.22;100.00;96832.41;4948216;28;20214;-51
2024/02/03 06:48:34;;;;;;;10.98;6.70;;;4.80;71.50;;;-0.27;100.00;96831.13;4947886;28;20026;-52
2024/02/03 06:51:00;;;;;;;12.52;6.28;;;4.70;71.30;;;-0.25;100.00;96830.97;4944621;28;20481;-51
2024/02/03 06:53:26;;;;;;;12.98;6.50;;;4.70;71.30;;;-0.25;100.00;96829.16;4948393;28;20034;-50
2024/02/03 06:55:52;;;;;;;10.32;6.28;;;4.80;71.40;;;-0.25;100.00;96831.78;4945796;28;20069;-52
2024/02/03 06:58:18;;;;;;;11.43;5.78;;;4.80;71.40;;;-0.26;100.00;96834.56;4951090;28;20033;-50
2024/02/03 07:00:44;;;;;;;11.35;6.20;;;4.70;71.30;;;-0.30;100.00;96833.25;4980625;23;20054;-53
2024/02/03 07:03:10;;;;;;;11.45;5.30;;;4.80;71.30;;;-0.35;100.00;96825.06;4972390;28;20091;-54
2024/02/03 07:05:38;;;;;;;10.40;5.93;;;4.70;71.20;;;-0.38;100.00;96834.06;4973244;28;20142;-50
2024/02/03 07:08:04;;;;;;;18.48;6.60;;;4.70;71.20;;;-0.40;100.00;96836.06;4973383;28;20069;-49
2024/02/03 07:10:30;;;;;;;13.73;6.95;;;4.80;71.30;;;-0.38;100.00;96838.50;4960464;28;20607;-49
2024/02/03 07:12:58;;;;;;;9.73;5.90;;;4.80;71.30;;;-0.36;100.00;96839.97;4951386;28;20190;-51
2024/02/03 07:15:24;;;;;;;10.88;5.72;;;4.80;71.40;;;-0.26;100.00;96842.41;4946009;28;20036;-53
2024/02/03 07:17:49;;;;;;;11.27;5.40;;;4.80;71.50;;;-0.25;100.00;96839.63;4950467;28;20027;-50
2024/02/03 07:20:15;;;;;;;14.48;6.80;;;4.80;71.60;;;-0.10;100.00;96833.72;4945571;28;20037;-57
2024/02/03 07:22:41;;;;;;;8.93;5.88;;;4.80;71.70;;;-0.05;100.00;96837.47;4952506;28;20389;-53
2024/02/03 07:25:07;;;;;;;11.60;5.82;;;4.90;71.80;;;-0.03;100.00;96832.88;4949797;28;20050;-57
2024/02/03 07:27:33;;;;;;;14.45;8.43;;;4.90;71.70;;;0.03;100.00;96848.91;4950221;28;20101;-53
2024/02/03 07:29:59;;;;;;;15.25;6.43;;;5.00;71.90;;;0.07;100.00;96835.31;4954130;28;20105;-55
2024/02/03 07:32:25;;;;;;;11.80;5.60;;;5.00;71.90;;;0.08;100.00;96842.19;4953367;28;20049;-51
2024/02/03 07:34:50;;;;;;;8.88;5.10;;;5.10;71.80;;;0.10;100.00;96837.59;4951174;28;20038;-56
2024/02/03 07:37:16;;;;;;;10.45;5.45;;;5.10;71.70;;;0.13;100.00;96836.47;4947950;28;20093;-54
2024/02/03 07:39:42;;;;;;;11.52;6.10;;;5.10;71.70;;;0.19;100.00;96841.03;4955757;28;20521;-54
2024/02/03 07:42:08;;;;;;;10.25;5.78;;;5.20;71.70;;;0.27;100.00;96843.59;4956881;28;20037;-53
2024/02/03 07:44:36;;;;;;;11.30;5.90;;;5.30;71.80;;;0.39;100.00;96844.06;4948143;28;20035;-56
2024/02/03 07:47:02;;;;;;;10.48;5.53;;;5.30;71.90;;;0.48;100.00;96843.03;4966181;28;20026;-54
2024/02/03 07:49:28;;;;;;;9.95;5.97;;;5.40;72.00;;;0.54;100.00;96841.53;4946284;28;20440;-53
2024/02/03 07:51:54;;;;;;;12.07;6.05;;;5.50;72.00;;;0.57;100.00;96843.84;4952458;28;20026;-54
2024/02/03 07:54:20;;;;;;;9.23;6.10;;;5.60;71.90;;;0.61;100.00;96843.31;4949074;28;20054;-57
2024/02/03 07:56:45;;;;;;;9.65;5.93;;;5.70;71.90;;;0.74;100.00;96844.56;4950928;28;20053;-56
2024/02/03 07:59:11;;;;;;;13.30;6.03;;;5.90;72.00;;;0.86;100.00;96851.88;4956593;28;20038;-53
2024/02/03 08:01:37;;;;;;;13.77;7.90;;;6.00;71.90;;;1.03;100.00;96847.31;4956512;28;20029;-50
2024/02/03 08:04:03;;;;;;;23.67;13.70;;;6.10;71.90;;;1.19;100.00;96845.59;4947697;28;20130;-52
2024/02/03 08:06:29;;;;;;;17.88;9.77;;;6.30;72.00;;;1.37;100.00;96846.13;4955431;28;20110;-49
2024/02/03 08:08:55;;;;;;;14.80;8.75;;;6.50;72.00;;;1.48;100.00;96850.16;4948691;28;20106;-54
2024/02/03 08:11:21;;;;;;;19.45;10.68;;;6.70;72.10;;;1.62;100.00;96849.38;4948307;28;20034;-51
2024/02/03 08:13:46;;;;;;;14.13;7.30;;;6.80;72.10;;;1.76;100.00;96845.16;4950227;28;20115;-49
2024/02/03 08:16:12;;;;;;;9.32;6.03;;;7.00;72.00;;;1.90;100.00;96838.28;4944606;28;20018;-52
2024/02/03 08:18:38;;;;;;;9.25;5.63;;;7.20;72.00;;;1.99;100.00;96850.34;4956603;28;21049;-53
2024/02/03 08:21:04;;;;;;;8.60;5.22;;;7.30;71.80;;;2.04;100.00;96840.94;4948696;28;20485;-54
2024/02/03 08:23:30;;;;;;;7.63;4.90;;;7.50;71.70;;;2.14;100.00;96842.50;4949540;28;20037;-54
2024/02/03 08:25:57;;;;;;;12.02;5.93;;;7.60;71.50;;;2.22;100.00;96842.38;4952497;28;20038;-54
2024/02/03 08:28:23;;;;;;;9.55;5.53;;;7.70;71.50;;;2.34;100.00;96854.09;4952591;28;20428;-54
2024/02/03 08:30:48;;;;;;;9.70;4.82;;;7.90;71.40;;;2.45;100.00;96840.50;4947413;28;20023;-52
2024/02/03 08:33:14;;;;;;;8.30;4.75;;;7.90;71.40;;;2.58;100.00;96842.47;4950268;28;20050;-53
2024/02/03 08:35:40;;;;;;;10.20;5.25;;;8.10;71.40;;;2.66;100.00;96850.25;4945875;28;20092;-51
2024/02/03 08:38:07;;;;;;;7.45;5.35;;;8.20;71.30;;;2.73;100.00;96842.47;4943669;28;20448;-51
2024/02/03 08:40:33;;;;;;;8.25;5.90;;;8.30;71.20;;;2.85;100.00;96846.25;4951247;28;20030;-51
2024/02/03 08:42:59;;;;;;;9.05;6.25;;;8.40;71.20;;;2.94;100.00;96844.31;4949224;28;20045;-50
2024/02/03 08:45:24;;;;;;;16.38;6.93;;;8.50;71.10;;;3.08;100.00;96845.28;4951807;28;20481;-52
2024/02/03 08:47:50;;;;;;;10.65;6.60;;;8.60;71.10;;;3.19;100.00;96842.13;4949520;28;20034;-50
2024/02/03 08:50:16;;;;;;;9.25;6.45;;;8.80;71.00;;;3.34;100.00;96847.34;4949914;28;20078;-50
2024/02/03 08:52:42;;;;;;;11.50;6.95;;;9.00;71.00;;;3.55;100.00;96847.34;4946124;28;21114;-51
2024/02/03 08:55:08;;;;;;;10.55;6.85;;;9.30;71.00;;;3.79;100.00;96850.59;4943466;28;20029;-50
2024/02/03 08:57:34;;;;;;;10.35;6.28;;;9.50;70.90;;;4.02;100.00;96850.38;4948058;28;20030;-51
2024/02/03 09:00:00;;;;;;;9.18;6.18;;;9.80;70.90;;;4.21;100.00;96849.69;4951791;28;20074;-50
2024/02/03 09:02:27;;;;;;;9.73;6.90;;;10.00;70.70;;;4.47;100.00;96846.38;4947536;28;20031;-51
2024/02/03 09:04:52;;;;;;;10.50;6.22;;;10.40;70.50;;;4.74;100.00;96849.97;4947085;28;20030;-53
2024/02/03 09:07:18;;;;;;;9.50;6.70;;;10.70;70.40;;;5.06;100.00;96850.28;4954595;28;20392;-51
2024/02/03 09:09:44;;;;;;;8.40;6.30;;;11.10;70.30;;;5.32;100.00;96850.34;4948164;28;20034;-49
2024/02/03 09:12:10;;;;;;;10.13;6.43;;;11.50;70.30;;;5.60;100.00;96853.84;4951779;28;20019;-52
2024/02/03 09:14:36;;;;;;;9.05;6.38;;;11.90;70.10;;;5.91;100.00;96851.41;4949762;28;20026;-52
2024/02/03 09:17:02;;;;;;;7.90;6.00;;;12.20;69.70;;;6.13;100.00;96851.25;4948005;28;20027;-53
2024/02/03 09:19:28;;;;;;;11.10;5.45;;;12.60;69.10;;;6.38;100.00;96846.13;4947723;28;20077;-50
2024/02/03 09:21:54;;;;;;;8.73;5.10;;;12.90;68.70;;;6.66;100.00;96837.88;4949174;28;20030;-53
2024/02/03 09:24:19;;;;;;;7.10;4.97;;;13.30;68.30;;;6.85;100.00;96844.13;4951770;28;20029;-54
2024/02/03 09:26:45;;;;;;;6.95;5.03;;;13.60;67.80;;;6.86;96.91;96838.66;4944323;28;20076;-50
2024/02/03 09:29:11;;;;;;;9.55;5.32;;;13.90;67.30;;;7.01;97.48;96838.34;4949910;28;20062;-50
2024/02/03 09:31:37;;;;;;;7.15;4.88;;;14.10;66.70;;;7.35;95.50;96842.47;4947010;28;20027;-51
2024/02/03 09:34:05;;;;;;;5.32;4.80;;;14.40;66.20;;;7.63;91.21;96838.59;4945704;28;20133;-50
2024/02/03 09:36:32;;;;;;;5.60;4.40;;;14.70;65.70;;;7.83;89.32;96841.09;4951601;28;20026;-49
2024/02/03 09:39:02;;;;;;;5.40;4.22;;;14.90;65.00;;;8.03;88.64;96843.63;4951195;28;20022;-51
2024/02/03 09:41:28;;;;;;;5.72;4.35;;;15.20;64.40;;;8.16;86.30;96848.78;4952917;28;20038;-52
2024/02/03 09:43:55;;;;;;;6.53;3.83;;;15.40;64.10;;;8.31;83.91;96840.50;4948584;28;20034;-51
2024/02/03 09:46:21;;;;;;;6.25;4.22;;;15.60;63.20;;;8.51;84.62;96840.31;4950707;28;20018;-54
2024/02/03 09:48:47;;;;;;;4.95;4.15;;;15.90;62.30;;;8.64;82.94;96842.81;4951488;28;20392;-54
2024/02/03 09:51:13;;;;;;;4.53;3.88;;;16.10;61.30;;;8.70;80.27;96833.16;4941941;28;20030;-51
2024/02/03 09:53:39;;;;;;;6.18;4.18;;;16.30;60.40;;;8.92;77.98;96839.63;4952672;28;20030;-50
2024/02/03 09:56:07;;;;;;;5.45;3.80;;;16.40;59.80;;;9.17;79.16;96834.22;4950939;28;20034;-50
2024/02/03 09:58:33;;;;;;;5.70;4.07;;;16.60;59.10;;;9.41;78.12;96836.97;4950199;28;20034;-54
2024/02/03 10:00:58;;;;;;;4.70;4.00;;;16.80;58.80;;;9.66;76.82;96834.97;4952942;28;20046;-52
2024/02/03 10:03:24;;;;;;;4.65;3.92;;;17.00;58.20;;;9.80;75.33;96840.06;4947471;28;20042;-53
2024/02/03 10:06:03;;;;;;;5.03;4.28;;;17.10;57.50;;;9.97;75.21;96830.41;4958865;28;20042;-51
2024/02/03 10:08:30;;;;;;;5.55;4.10;;;17.30;56.60;;;10.17;74.51;96832.72;4943921;28;20038;-51
2024/02/03 10:10:57;;;;;;;6.30;4.97;;;17.50;56.50;;;10.22;72.13;96829.38;4948105;28;20021;-52